Time;durP1;ratioP1;P1;durP2;ratioP2;P2;SDS_P1;SDS_P2;PMS_P1;PMS_P2;Temp;Humidity;BMP_temperature;BMP_pressure;BME280_temperature;BME280_humidity;BME280_pressure;Samples;Min_cycle;Max_cycle;Signal;HPM_P1;HPM_P2
2023/08/06 00:00:40;;;;;;;5.97;3.42;;;16.60;99.90;;;;;;4999627;28;20033;-80
2023/08/06 00:03:06;;;;;;;7.03;3.65;;;16.70;99.90;;;;;;5015864;28;20033;-79
2023/08/06 00:05:32;;;;;;;6.97;3.33;;;16.70;99.90;;;;;;5032130;28;20044;-80
2023/08/06 00:07:57;;;;;;;8.55;3.70;;;16.70;99.90;;;;;;4999463;28;20029;-79
2023/08/06 00:10:23;;;;;;;8.13;3.92;;;16.70;99.90;;;;;;5015702;28;20504;-79
2023/08/06 00:12:49;;;;;;;6.15;3.20;;;16.70;99.90;;;;;;5016012;28;20026;-79
2023/08/06 00:15:14;;;;;;;5.95;3.72;;;16.70;99.90;;;;;;5015659;28;20108;-80
2023/08/06 00:17:40;;;;;;;5.18;3.20;;;16.70;99.90;;;;;;4999317;28;20026;-80
2023/08/06 00:20:06;;;;;;;7.15;3.47;;;16.70;99.90;;;;;;4999130;28;20468;-80
2023/08/06 00:22:37;;;;;;;7.85;3.63;;;16.70;99.90;;;;;;5015818;28;20029;-79
2023/08/06 00:25:04;;;;;;;6.25;3.75;;;16.70;99.90;;;;;;5032043;28;20017;-79
2023/08/06 00:27:30;;;;;;;9.35;4.38;;;16.70;99.90;;;;;;5032024;28;20021;-79
2023/08/06 00:29:55;;;;;;;5.80;3.55;;;16.70;99.90;;;;;;5015395;28;20409;-80
2023/08/06 00:32:21;;;;;;;6.95;3.67;;;16.70;99.90;;;;;;4999136;28;20080;-80
2023/08/06 00:34:49;;;;;;;7.53;4.25;;;16.70;99.90;;;;;;5015708;28;20033;-80
2023/08/06 00:37:16;;;;;;;6.70;3.97;;;16.70;99.90;;;;;;4999669;28;20539;-80
2023/08/06 00:39:42;;;;;;;7.57;3.97;;;16.70;99.90;;;;;;5015675;28;20421;-80
2023/08/06 00:42:07;;;;;;;6.32;3.80;;;16.70;99.90;;;;;;4999246;28;20033;-80
2023/08/06 00:44:33;;;;;;;9.57;4.28;;;16.60;99.90;;;;;;4999279;28;20026;-80
2023/08/06 00:46:59;;;;;;;7.63;4.45;;;16.60;99.90;;;;;;5015416;28;20026;-80
2023/08/06 00:49:25;;;;;;;9.40;4.65;;;16.60;99.90;;;;;;5033173;28;20029;-80
2023/08/06 00:51:50;;;;;;;8.43;4.40;;;16.60;99.90;;;;;;5015523;28;20065;-80
2023/08/06 00:54:16;;;;;;;7.85;5.10;;;16.60;99.90;;;;;;5017298;28;20037;-80
2023/08/06 00:56:42;;;;;;;9.73;4.82;;;16.60;99.90;;;;;;5019114;28;20051;-80
2023/08/06 00:59:10;;;;;;;10.88;5.75;;;16.60;99.90;;;;;;5035414;28;20030;-80
2023/08/06 01:01:36;;;;;;;9.65;5.30;;;16.60;99.90;;;;;;5019291;28;20033;-80
2023/08/06 01:04:02;;;;;;;11.90;5.78;;;16.60;99.90;;;;;;5002933;28;20026;-80
2023/08/06 01:06:48;;;;;;;11.25;5.88;;;16.50;99.90;;;;;;5018974;28;20025;-80
2023/08/06 01:09:39;;;;;;;9.10;6.13;;;16.50;99.90;;;;;;5036705;28;20039;-80
2023/08/06 01:12:25;;;;;;;11.10;6.60;;;16.50;99.90;;;;;;5036719;28;20037;-80
2023/08/06 01:15:19;;;;;;;10.68;6.25;;;16.50;99.90;;;;;;5035297;28;20025;-80
2023/08/06 01:17:45;;;;;;;10.60;5.85;;;16.60;99.90;;;;;;5036537;28;20029;-80
2023/08/06 01:20:11;;;;;;;8.65;5.93;;;16.50;99.90;;;;;;5018872;28;20037;-80
2023/08/06 01:22:37;;;;;;;9.80;6.45;;;16.50;99.90;;;;;;5002487;28;20021;-80
2023/08/06 01:25:03;;;;;;;9.27;5.75;;;16.50;99.90;;;;;;5035137;28;20030;-80
2023/08/06 01:27:32;;;;;;;9.27;5.97;;;16.50;99.90;;;;;;5035009;28;20397;-80
2023/08/06 01:30:11;;;;;;;8.65;5.15;;;16.50;99.90;;;;;;5034786;28;20049;-80
2023/08/06 01:32:42;;;;;;;9.20;4.80;;;16.40;99.90;;;;;;5034944;28;20434;-80
2023/08/06 01:35:10;;;;;;;6.93;4.30;;;16.50;99.90;;;;;;5036219;28;20025;-81
2023/08/06 01:37:37;;;;;;;7.88;4.30;;;16.40;99.90;;;;;;5018674;28;20037;-80
2023/08/06 01:40:14;;;;;;;6.63;3.95;;;16.40;99.90;;;;;;5034659;28;20060;-80
2023/08/06 01:42:40;;;;;;;6.38;3.80;;;16.40;99.90;;;;;;5034731;28;20053;-80
2023/08/06 01:45:09;;;;;;;9.05;4.10;;;16.40;99.90;;;;;;5034849;28;20056;-80
2023/08/06 01:47:35;;;;;;;7.80;4.60;;;16.40;99.90;;;;;;5018487;28;20026;-80
2023/08/06 01:50:02;;;;;;;7.68;4.63;;;16.40;99.90;;;;;;5034521;28;20029;-80
2023/08/06 01:52:28;;;;;;;8.30;4.50;;;16.40;99.90;;;;;;5034384;28;20021;-80
2023/08/06 01:54:54;;;;;;;6.80;4.43;;;16.40;99.90;;;;;;5001707;28;20543;-80
2023/08/06 01:57:20;;;;;;;10.35;5.45;;;16.40;99.90;;;;;;5001723;28;20171;-80
2023/08/06 01:59:45;;;;;;;8.13;5.10;;;16.40;99.90;;;;;;5017802;28;20116;-80
2023/08/06 02:02:11;;;;;;;8.85;5.38;;;16.40;99.90;;;;;;5001649;28;20031;-80
2023/08/06 02:04:36;;;;;;;11.30;6.35;;;16.40;99.90;;;;;;5001217;28;20160;-80
2023/08/06 02:07:02;;;;;;;11.20;6.40;;;16.40;99.90;;;;;;5000868;28;20485;-80
2023/08/06 02:09:28;;;;;;;8.32;5.68;;;16.40;99.90;;;;;;5001686;28;20029;-80
2023/08/06 02:11:53;;;;;;;10.07;6.35;;;16.40;99.90;;;;;;5001442;28;20424;-80
2023/08/06 02:14:19;;;;;;;11.05;6.78;;;16.40;99.90;;;;;;5017796;28;20065;-80
2023/08/06 02:16:45;;;;;;;9.70;5.53;;;16.40;99.90;;;;;;5034169;28;20523;-80
2023/08/06 02:19:10;;;;;;;11.90;6.70;;;16.40;99.90;;;;;;5017635;28;20045;-80
2023/08/06 02:21:36;;;;;;;10.93;6.43;;;16.40;99.90;;;;;;5001378;28;20041;-79
2023/08/06 02:24:02;;;;;;;11.75;6.88;;;16.40;99.90;;;;;;5017527;28;20080;-80
2023/08/06 02:26:27;;;;;;;10.55;6.50;;;16.40;99.90;;;;;;5017344;28;20028;-80
2023/08/06 02:28:53;;;;;;;10.70;7.32;;;16.30;99.90;;;;;;5001044;28;20084;-80
2023/08/06 02:31:19;;;;;;;11.93;8.70;;;16.40;99.90;;;;;;5000953;28;20034;-80
2023/08/06 02:33:44;;;;;;;12.80;8.52;;;16.40;99.90;;;;;;5017388;28;20554;-80
2023/08/06 02:36:10;;;;;;;14.98;9.88;;;16.30;99.90;;;;;;5000774;28;20393;-80
2023/08/06 02:38:36;;;;;;;17.23;9.48;;;16.30;99.90;;;;;;5017211;28;20034;-80
2023/08/06 02:41:04;;;;;;;15.93;10.30;;;16.30;99.90;;;;;;5017158;28;20171;-80
2023/08/06 02:43:30;;;;;;;13.68;8.80;;;16.40;99.90;;;;;;5000686;28;20034;-80
2023/08/06 02:46:00;;;;;;;12.23;8.25;;;16.30;99.90;;;;;;5017278;28;20029;-80
2023/08/06 02:48:26;;;;;;;14.10;8.65;;;16.30;99.90;;;;;;5033758;28;20126;-80
2023/08/06 02:50:51;;;;;;;11.98;8.27;;;16.30;99.90;;;;;;5034709;28;20461;-79
2023/08/06 02:53:17;;;;;;;15.65;9.75;;;16.30;99.90;;;;;;5016983;28;20049;-79
2023/08/06 02:55:50;;;;;;;12.75;8.52;;;16.30;99.90;;;;;;5016973;28;20035;-80
2023/08/06 02:58:16;;;;;;;12.73;8.60;;;16.30;99.90;;;;;;5001527;28;20091;-79
2023/08/06 03:00:43;;;;;;;11.93;8.48;;;16.30;99.90;;;;;;5017125;28;20470;-79
2023/08/06 03:03:08;;;;;;;10.63;7.65;;;16.30;99.90;;;;;;5033146;28;20028;-80
2023/08/06 03:05:34;;;;;;;13.02;8.70;;;16.30;99.90;;;;;;5033286;28;20029;-80
2023/08/06 03:07:59;;;;;;;12.68;8.23;;;16.30;99.90;;;;;;5000375;28;20029;-80
2023/08/06 03:10:25;;;;;;;11.18;8.02;;;16.30;99.90;;;;;;5034540;28;20029;-80
2023/08/06 03:12:51;;;;;;;9.73;7.15;;;16.30;99.90;;;;;;5000317;28;20029;-80
2023/08/06 03:15:16;;;;;;;9.70;7.35;;;16.30;99.90;;;;;;5016694;28;20033;-80
2023/08/06 03:17:44;;;;;;;10.45;7.00;;;16.30;99.90;;;;;;5016527;28;20113;-79
2023/08/06 03:20:09;;;;;;;9.90;6.75;;;16.30;99.90;;;;;;5016739;28;20060;-79
2023/08/06 03:22:35;;;;;;;9.48;6.82;;;16.30;99.90;;;;;;5000861;28;20059;-80
2023/08/06 03:25:01;;;;;;;8.90;6.90;;;16.40;99.90;;;;;;5016522;28;20037;-80
2023/08/06 03:27:26;;;;;;;10.32;6.47;;;16.30;99.90;;;;;;5034118;28;20030;-79
2023/08/06 03:29:52;;;;;;;10.35;7.47;;;16.30;99.90;;;;;;4999917;28;20053;-79
2023/08/06 03:32:18;;;;;;;11.57;7.03;;;16.30;99.90;;;;;;4999771;28;20029;-79
2023/08/06 03:34:43;;;;;;;11.50;7.68;;;16.30;99.90;;;;;;5016393;28;20033;-79
2023/08/06 03:37:09;;;;;;;10.27;6.68;;;16.30;99.90;;;;;;5016266;28;20037;-79
2023/08/06 03:39:34;;;;;;;12.63;7.38;;;16.40;99.90;;;;;;4999861;28;20095;-79
2023/08/06 03:42:00;;;;;;;14.52;8.35;;;16.30;99.90;;;;;;4999925;28;20033;-79
2023/08/06 03:44:28;;;;;;;10.75;7.38;;;16.30;99.90;;;;;;4999717;28;20374;-80
2023/08/06 03:46:53;;;;;;;10.65;6.47;;;16.30;99.90;;;;;;5000188;28;20018;-80
2023/08/06 03:49:19;;;;;;;10.40;6.93;;;16.30;99.90;;;;;;5016040;28;20051;-80
2023/08/06 03:51:44;;;;;;;10.05;6.93;;;16.30;99.90;;;;;;5016175;28;20215;-80
2023/08/06 03:54:10;;;;;;;10.35;6.57;;;16.40;99.90;;;;;;5032402;28;20485;-80
2023/08/06 03:56:36;;;;;;;11.77;8.63;;;16.30;99.90;;;;;;5015946;28;20128;-79
2023/08/06 03:59:01;;;;;;;12.05;7.60;;;16.30;99.90;;;;;;4999577;28;20079;-79
2023/08/06 04:01:27;;;;;;;14.20;8.18;;;16.30;99.90;;;;;;5015964;28;20470;-80
2023/08/06 04:03:52;;;;;;;10.48;6.95;;;16.40;99.90;;;;;;5015849;28;20528;-79
2023/08/06 04:06:18;;;;;;;11.05;6.80;;;16.30;99.90;;;;;;5032194;28;20034;-79
2023/08/06 04:08:44;;;;;;;11.93;6.95;;;16.40;99.90;;;;;;5015677;28;20029;-79
2023/08/06 04:11:09;;;;;;;11.85;7.95;;;16.40;99.90;;;;;;5015936;28;20033;-80
2023/08/06 04:13:35;;;;;;;11.07;6.65;;;16.40;99.90;;;;;;4999430;28;20033;-80
2023/08/06 04:16:02;;;;;;;10.77;7.30;;;16.30;99.90;;;;;;5015723;28;20095;-80
2023/08/06 04:18:27;;;;;;;11.77;7.65;;;16.30;99.90;;;;;;5031944;28;20033;-80
2023/08/06 04:20:55;;;;;;;11.18;7.25;;;16.30;99.90;;;;;;5015521;28;20478;-80
2023/08/06 04:23:20;;;;;;;12.88;7.55;;;16.40;99.90;;;;;;5015787;28;20025;-80
2023/08/06 04:25:46;;;;;;;10.40;7.10;;;16.40;99.90;;;;;;5015835;28;20036;-79
2023/08/06 04:28:12;;;;;;;11.73;6.78;;;16.40;99.90;;;;;;4999581;28;20025;-79
2023/08/06 04:30:38;;;;;;;9.40;6.88;;;16.40;99.90;;;;;;5035888;28;20045;-79
2023/08/06 04:33:03;;;;;;;10.30;6.38;;;16.40;99.90;;;;;;5003369;28;20037;-79
2023/08/06 04:35:29;;;;;;;9.48;6.35;;;16.40;99.90;;;;;;5035004;28;20026;-79
2023/08/06 04:37:55;;;;;;;9.52;6.18;;;16.40;99.90;;;;;;5017481;28;20026;-79
2023/08/06 04:40:20;;;;;;;10.63;6.25;;;16.40;99.90;;;;;;5035352;28;20040;-88
2023/08/06 04:42:46;;;;;;;9.93;5.80;;;16.40;99.90;;;;;;5002454;28;20029;-87
2023/08/06 04:45:12;;;;;;;10.65;6.70;;;16.40;99.90;;;;;;5037478;28;20013;-87
2023/08/06 04:47:37;;;;;;;14.80;7.22;;;16.40;99.90;;;;;;5019105;28;20021;-87
2023/08/06 04:50:03;;;;;;;10.85;6.93;;;16.50;99.90;;;;;;5020294;28;20033;-87
2023/08/06 04:52:29;;;;;;;11.80;7.35;;;16.50;99.90;;;;;;5020371;28;20112;-87
2023/08/06 04:54:55;;;;;;;12.02;7.22;;;16.50;99.90;;;;;;5003587;28;20481;-87
2023/08/06 04:57:21;;;;;;;11.10;7.75;;;16.50;99.90;;;;;;5002464;28;20029;-87
2023/08/06 04:59:46;;;;;;;10.18;7.18;;;16.50;99.90;;;;;;5019579;28;20575;-87
2023/08/06 05:02:12;;;;;;;10.27;6.75;;;16.50;99.90;;;;;;5036770;28;20389;-87
2023/08/06 05:04:38;;;;;;;10.43;6.35;;;16.60;99.90;;;;;;4986844;28;20068;-86
2023/08/06 05:07:05;;;;;;;10.80;6.65;;;16.60;99.90;;;;;;5014047;28;20492;-87
2023/08/06 05:09:30;;;;;;;10.95;7.88;;;16.60;99.90;;;;;;5036508;28;20033;-85
2023/08/06 05:11:56;;;;;;;10.45;6.78;;;16.60;99.90;;;;;;5001708;28;20029;-79
2023/08/06 05:14:22;;;;;;;12.32;7.45;;;16.60;99.90;;;;;;5019118;28;20401;-79
2023/08/06 05:16:47;;;;;;;11.68;7.22;;;16.60;99.90;;;;;;5018762;28;20033;-80
2023/08/06 05:19:13;;;;;;;9.05;6.28;;;16.70;99.90;;;;;;5002377;28;20075;-80
2023/08/06 05:21:38;;;;;;;11.23;7.43;;;16.70;99.90;;;;;;5002209;28;20584;-80
2023/08/06 05:24:04;;;;;;;13.15;7.97;;;16.80;99.90;;;;;;5018696;28;20124;-79
2023/08/06 05:26:30;;;;;;;11.15;8.05;;;16.80;99.90;;;;;;5002265;28;20112;-79
2023/08/06 05:28:55;;;;;;;10.32;6.63;;;16.80;99.90;;;;;;5018589;28;20045;-79
2023/08/06 05:31:21;;;;;;;12.35;6.72;;;16.80;99.90;;;;;;5001938;28;20456;-79
2023/08/06 05:33:46;;;;;;;10.98;7.68;;;16.90;99.90;;;;;;5002126;28;20071;-79
2023/08/06 05:36:12;;;;;;;12.05;7.55;;;16.90;99.90;;;;;;5018516;28;20030;-80
2023/08/06 05:38:38;;;;;;;10.48;7.13;;;17.00;99.90;;;;;;5002206;28;20044;-80
2023/08/06 05:41:03;;;;;;;12.13;7.65;;;17.00;99.90;;;;;;5000793;28;20034;-80
2023/08/06 05:43:29;;;;;;;11.52;6.72;;;17.00;99.90;;;;;;5001950;28;20029;-80
2023/08/06 05:45:56;;;;;;;11.18;7.38;;;17.10;99.90;;;;;;5018074;28;20565;-88
2023/08/06 05:48:24;;;;;;;11.13;7.38;;;17.10;99.90;;;;;;5036340;28;20082;-88
2023/08/06 05:50:50;;;;;;;12.05;7.60;;;17.10;99.90;;;;;;5018122;28;20061;-87
2023/08/06 05:53:16;;;;;;;10.48;7.03;;;17.10;99.90;;;;;;5035315;28;20289;-88
2023/08/06 05:55:41;;;;;;;13.18;7.65;;;17.20;99.90;;;;;;5017636;28;20115;-88
2023/08/06 05:58:07;;;;;;;10.40;6.57;;;17.20;99.90;;;;;;5018126;28;20026;-88
2023/08/06 06:00:33;;;;;;;9.73;7.32;;;17.20;99.90;;;;;;5035934;28;20036;-88
2023/08/06 06:02:58;;;;;;;10.25;7.20;;;17.20;99.90;;;;;;5000525;28;20085;-88
2023/08/06 06:05:24;;;;;;;8.88;6.53;;;17.20;99.90;;;;;;5001566;28;20037;-88
2023/08/06 06:07:49;;;;;;;9.48;7.07;;;17.20;99.90;;;;;;5019471;28;20021;-86
2023/08/06 06:10:15;;;;;;;11.70;8.27;;;17.20;99.90;;;;;;5021561;28;20021;-86
2023/08/06 06:12:41;;;;;;;13.05;8.98;;;17.20;99.90;;;;;;5006604;28;20108;-87
2023/08/06 06:15:07;;;;;;;12.50;8.57;;;17.20;99.90;;;;;;5023730;28;20030;-87
2023/08/06 06:17:33;;;;;;;10.80;7.90;;;17.30;99.90;;;;;;5022795;28;20103;-85
2023/08/06 06:19:59;;;;;;;12.95;9.32;;;17.30;99.90;;;;;;5018485;28;20034;-87
2023/08/06 06:22:24;;;;;;;13.38;9.20;;;17.30;99.90;;;;;;5036858;28;20025;-88
2023/08/06 06:24:50;;;;;;;11.77;8.98;;;17.30;99.90;;;;;;5001814;28;20025;-81
2023/08/06 06:27:16;;;;;;;11.60;9.20;;;17.40;99.90;;;;;;5017490;28;20040;-81
2023/08/06 06:29:41;;;;;;;12.95;10.05;;;17.40;99.90;;;;;;5015004;28;20108;-86
2023/08/06 06:32:07;;;;;;;13.13;9.68;;;17.40;99.90;;;;;;4999921;28;20513;-87
2023/08/06 06:34:33;;;;;;;17.02;10.65;;;17.50;99.90;;;;;;5016350;28;20033;-87
2023/08/06 06:36:58;;;;;;;16.08;11.02;;;17.50;99.90;;;;;;5015218;28;20061;-81
2023/08/06 06:39:24;;;;;;;13.15;10.45;;;17.50;99.90;;;;;;4997688;28;20034;-81
2023/08/06 06:41:49;;;;;;;13.93;10.25;;;17.60;99.90;;;;;;4997614;28;20387;-81
2023/08/06 06:44:15;;;;;;;14.43;11.02;;;17.50;99.90;;;;;;4997404;28;20026;-81
2023/08/06 06:46:41;;;;;;;15.05;11.23;;;17.50;99.90;;;;;;5013797;28;20022;-81
2023/08/06 06:49:07;;;;;;;15.00;11.45;;;17.60;99.90;;;;;;4997252;28;20038;-80
2023/08/06 06:51:32;;;;;;;15.55;12.23;;;17.50;99.90;;;;;;5018472;28;20436;-87
2023/08/06 06:53:58;;;;;;;14.75;10.80;;;17.50;99.90;;;;;;5017349;28;20034;-86
2023/08/06 06:56:24;;;;;;;17.48;12.57;;;17.50;99.90;;;;;;5016124;28;20045;-87
2023/08/06 06:58:49;;;;;;;16.55;11.07;;;17.50;99.90;;;;;;5033562;28;20061;-86
2023/08/06 07:01:15;;;;;;;13.75;10.90;;;17.50;99.90;;;;;;4999724;28;20536;-87
2023/08/06 07:03:40;;;;;;;15.00;11.52;;;17.50;99.90;;;;;;5015453;28;20434;-87
2023/08/06 07:06:06;;;;;;;15.15;11.88;;;17.50;99.90;;;;;;5015474;28;20034;-87
2023/08/06 07:08:32;;;;;;;14.18;10.95;;;17.50;99.90;;;;;;5014066;28;20038;-80
2023/08/06 07:11:02;;;;;;;15.48;11.80;;;17.40;99.90;;;;;;4997064;28;20153;-80
2023/08/06 07:13:29;;;;;;;15.25;10.82;;;17.40;99.90;;;;;;5014612;28;20083;-80
2023/08/06 07:15:55;;;;;;;15.43;11.52;;;17.40;99.90;;;;;;5013359;28;20481;-80
2023/08/06 07:18:21;;;;;;;14.50;10.57;;;17.40;99.90;;;;;;5032357;28;20167;-87
2023/08/06 07:20:54;;;;;;;15.25;11.40;;;17.40;99.90;;;;;;5013995;28;20026;-80
2023/08/06 07:23:23;;;;;;;13.60;10.82;;;17.30;99.90;;;;;;5013120;28;20018;-80
2023/08/06 07:25:49;;;;;;;13.48;10.38;;;17.30;99.90;;;;;;5012102;28;20425;-80
2023/08/06 07:28:15;;;;;;;13.30;10.45;;;17.30;99.90;;;;;;5013243;28;20046;-86
2023/08/06 07:30:42;;;;;;;14.43;10.23;;;17.30;99.90;;;;;;5015502;28;20513;-87
2023/08/06 07:33:08;;;;;;;12.45;10.05;;;17.30;99.90;;;;;;5016452;28;20046;-88
2023/08/06 07:35:34;;;;;;;11.60;9.65;;;17.30;99.90;;;;;;5016910;28;20025;-87
2023/08/06 07:38:00;;;;;;;11.55;9.38;;;17.30;99.90;;;;;;5016008;28;20037;-88
2023/08/06 07:40:25;;;;;;;11.52;9.32;;;17.40;99.90;;;;;;5015518;28;20490;-81
2023/08/06 07:42:51;;;;;;;13.88;9.45;;;17.40;99.90;;;;;;5012857;28;20382;-81
2023/08/06 07:45:17;;;;;;;13.82;10.32;;;17.40;99.90;;;;;;5012931;28;20026;-81
2023/08/06 07:47:42;;;;;;;11.45;8.70;;;17.40;99.90;;;;;;5012817;28;20080;-81
2023/08/06 07:50:09;;;;;;;12.05;8.68;;;17.50;99.90;;;;;;4996403;28;20117;-81
2023/08/06 07:52:35;;;;;;;12.05;9.23;;;17.50;99.90;;;;;;5015770;28;20022;-81
2023/08/06 07:55:04;;;;;;;15.25;9.40;;;17.60;99.90;;;;;;5012734;28;20360;-80
2023/08/06 07:57:32;;;;;;;13.55;10.02;;;17.60;99.90;;;;;;5012737;28;20034;-80
2023/08/06 07:59:57;;;;;;;14.18;9.68;;;17.60;99.90;;;;;;5012499;28;20029;-80
2023/08/06 08:02:23;;;;;;;13.68;9.85;;;17.70;99.90;;;;;;4998904;28;20457;-81
2023/08/06 08:04:49;;;;;;;13.52;9.50;;;17.70;99.90;;;;;;5013790;28;20026;-88
2023/08/06 08:07:15;;;;;;;12.40;9.05;;;17.80;99.90;;;;;;5014789;28;20461;-80
2023/08/06 08:09:40;;;;;;;12.88;9.50;;;17.80;99.90;;;;;;4996094;28;20595;-80
2023/08/06 08:12:06;;;;;;;12.38;9.13;;;17.90;99.90;;;;;;5012463;28;20406;-80
2023/08/06 08:14:37;;;;;;;12.30;8.50;;;17.90;99.90;;;;;;5028920;28;20036;-81
2023/08/06 08:17:04;;;;;;;11.55;8.63;;;18.00;99.90;;;;;;5001949;28;20077;-80
2023/08/06 08:19:30;;;;;;;9.85;7.80;;;18.00;99.90;;;;;;5013940;28;20425;-89
2023/08/06 08:21:56;;;;;;;10.77;8.48;;;18.10;99.90;;;;;;5017276;28;20047;-88
2023/08/06 08:24:23;;;;;;;10.05;7.78;;;18.20;99.90;;;;;;5032531;28;20060;-88
2023/08/06 08:26:50;;;;;;;10.02;7.60;;;18.20;99.90;;;;;;5016976;28;20033;-88
2023/08/06 08:29:16;;;;;;;10.63;7.93;;;18.30;99.90;;;;;;5021494;28;20034;-88
2023/08/06 08:31:43;;;;;;;11.32;7.53;;;18.40;99.90;;;;;;5001722;28;20482;-88
2023/08/06 08:34:09;;;;;;;11.23;7.32;;;18.40;99.90;;;;;;5002409;28;20030;-88
2023/08/06 08:36:34;;;;;;;11.55;8.23;;;18.50;99.90;;;;;;5016490;28;20040;-80
2023/08/06 08:39:00;;;;;;;10.38;7.80;;;18.60;99.90;;;;;;4995295;28;20076;-80
2023/08/06 08:41:29;;;;;;;10.23;8.07;;;18.70;99.90;;;;;;4995902;28;20022;-80
2023/08/06 08:43:56;;;;;;;10.43;7.57;;;18.80;99.90;;;;;;5013345;28;20488;-80
2023/08/06 08:46:23;;;;;;;11.02;8.15;;;18.90;99.90;;;;;;4979957;28;20022;-80
2023/08/06 08:48:49;;;;;;;9.40;6.75;;;19.00;99.90;;;;;;4995925;28;20076;-80
2023/08/06 08:51:16;;;;;;;8.75;6.90;;;19.00;99.90;;;;;;4979568;28;20519;-80
2023/08/06 08:53:45;;;;;;;9.38;6.82;;;19.10;99.90;;;;;;4995686;28;20129;-80
2023/08/06 08:56:14;;;;;;;9.07;7.00;;;19.20;99.90;;;;;;5014152;28;20021;-80
2023/08/06 08:58:39;;;;;;;8.50;6.43;;;19.30;99.90;;;;;;5031894;28;20034;-80
2023/08/06 09:01:07;;;;;;;9.07;6.82;;;19.40;99.90;;;;;;5015247;28;20187;-80
2023/08/06 09:03:33;;;;;;;8.05;6.50;;;19.50;99.90;;;;;;5015672;28;20362;-80
2023/08/06 09:06:02;;;;;;;8.98;5.95;;;19.60;99.90;;;;;;5032436;28;20092;-80
2023/08/06 09:08:36;;;;;;;7.63;5.82;;;19.70;99.90;;;;;;4979564;28;20116;-80
2023/08/06 09:11:02;;;;;;;7.70;5.82;;;19.70;99.90;;;;;;4995560;28;20046;-80
2023/08/06 09:13:28;;;;;;;8.95;5.43;;;19.80;99.90;;;;;;4996568;28;20033;-81
2023/08/06 09:15:53;;;;;;;8.02;5.90;;;19.80;99.90;;;;;;5001477;28;20044;-81
2023/08/06 09:18:27;;;;;;;7.18;5.25;;;19.90;99.90;;;;;;5002283;28;20072;-80
2023/08/06 09:20:53;;;;;;;8.45;5.82;;;19.80;99.90;;;;;;5002478;28;20025;-81
2023/08/06 09:23:20;;;;;;;7.55;5.82;;;19.90;99.90;;;;;;5002120;28;20109;-81
2023/08/06 09:25:45;;;;;;;9.95;5.93;;;19.80;99.90;;;;;;5002510;28;20025;-81
2023/08/06 09:28:17;;;;;;;7.80;5.55;;;19.80;99.90;;;;;;5018098;28;20433;-79
2023/08/06 09:30:43;;;;;;;9.27;6.20;;;19.60;99.90;;;;;;5017914;28;20057;-81
2023/08/06 09:33:14;;;;;;;7.45;5.20;;;19.40;99.80;;;;;;5018275;28;20021;-80
2023/08/06 09:35:39;;;;;;;7.25;5.43;;;19.20;99.90;;;;;;5018640;28;20032;-81
2023/08/06 09:38:10;;;;;;;6.43;4.57;;;19.00;99.90;;;;;;5001968;28;20108;-81
2023/08/06 09:40:37;;;;;;;7.63;5.90;;;18.80;99.90;;;;;;5001935;28;20088;-82
2023/08/06 09:43:03;;;;;;;7.47;5.38;;;18.60;99.90;;;;;;5002259;28;20021;-82
2023/08/06 09:45:33;;;;;;;7.35;5.45;;;18.30;99.90;;;;;;4981945;28;20433;-82
2023/08/06 09:48:02;;;;;;;6.47;4.93;;;18.20;99.90;;;;;;4998481;28;20056;-82
2023/08/06 09:50:32;;;;;;;6.35;3.75;;;18.00;99.90;;;;;;4998411;28;20034;-79
2023/08/06 09:53:00;;;;;;;4.53;2.65;;;17.90;99.90;;;;;;4998410;28;20030;-81
2023/08/06 09:55:26;;;;;;;3.20;1.83;;;17.50;99.90;;;;;;5014827;28;20033;-81
2023/08/06 09:57:52;;;;;;;2.97;1.50;;;17.40;99.90;;;;;;5004383;28;20124;-80
2023/08/06 10:00:18;;;;;;;3.15;1.55;;;17.20;99.90;;;;;;5001719;28;20049;-80
2023/08/06 10:02:45;;;;;;;3.05;1.30;;;17.00;99.90;;;;;;5001276;28;20037;-77
2023/08/06 10:05:11;;;;;;;1.90;1.00;;;16.90;99.90;;;;;;5034477;28;20025;-80
2023/08/06 10:07:40;;;;;;;2.05;1.10;;;16.70;99.90;;;;;;5016660;28;20124;-78
2023/08/06 10:10:07;;;;;;;2.28;1.20;;;16.60;99.90;;;;;;5016552;28;20388;-79
2023/08/06 10:12:56;;;;;;;3.95;1.30;;;16.50;99.90;;;;;;5033320;28;20164;-79
2023/08/06 10:15:29;;;;;;;2.63;0.80;;;16.40;99.90;;;;;;5033557;28;20063;-81
2023/08/06 10:17:57;;;;;;;2.42;0.73;;;16.30;99.90;;;;;;5016976;28;20026;-80
2023/08/06 10:20:23;;;;;;;1.10;0.60;;;16.10;99.90;;;;;;5035217;28;20485;-81
2023/08/06 10:23:06;;;;;;;2.13;0.70;;;16.10;99.90;;;;;;5017796;28;20116;-80
2023/08/06 10:25:40;;;;;;;2.10;0.70;;;16.00;99.90;;;;;;5017858;28;20049;-80
2023/08/06 10:28:14;;;;;;;2.72;0.60;;;15.90;99.90;;;;;;5033742;28;20052;-83
2023/08/06 10:30:46;;;;;;;1.48;0.70;;;15.90;99.90;;;;;;5017861;28;20586;-79
2023/08/06 10:33:12;;;;;;;1.52;0.77;;;15.80;99.90;;;;;;5017419;28;20049;-81
2023/08/06 10:35:44;;;;;;;2.28;0.70;;;15.70;99.90;;;;;;5035554;28;20389;-78
2023/08/06 10:38:31;;;;;;;2.25;0.93;;;15.70;99.90;;;;;;5017962;28;20036;-81
2023/08/06 10:40:57;;;;;;;2.72;0.75;;;15.60;99.90;;;;;;5033969;28;20512;-79
2023/08/06 10:43:30;;;;;;;2.63;1.08;;;15.60;99.90;;;;;;5035071;28;20097;-79
2023/08/06 10:45:58;;;;;;;3.15;0.88;;;15.50;99.90;;;;;;5035046;28;20028;-78
2023/08/06 10:48:40;;;;;;;2.88;1.20;;;15.50;99.90;;;;;;5033694;28;20033;-81
2023/08/06 10:51:11;;;;;;;3.33;1.10;;;15.50;99.90;;;;;;5033510;28;20029;-79
2023/08/06 10:53:38;;;;;;;3.53;1.27;;;15.50;99.90;;;;;;5034814;28;20068;-79
2023/08/06 10:56:22;;;;;;;4.18;1.42;;;15.40;99.90;;;;;;5017413;28;20052;-80
2023/08/06 10:58:49;;;;;;;3.90;1.75;;;15.40;99.90;;;;;;5035054;28;20056;-81
2023/08/06 11:01:15;;;;;;;3.28;1.40;;;15.40;99.90;;;;;;5033382;28;20014;-81
2023/08/06 11:03:42;;;;;;;4.93;2.00;;;15.40;99.90;;;;;;5034545;28;20100;-81
2023/08/06 11:06:09;;;;;;;3.25;1.40;;;15.40;99.90;;;;;;5033397;28;20021;-81
2023/08/06 11:08:36;;;;;;;4.07;1.80;;;15.40;99.90;;;;;;5033048;28;20018;-79
2023/08/06 11:11:13;;;;;;;3.33;1.80;;;15.50;99.90;;;;;;5033758;28;20018;-81
2023/08/06 11:13:42;;;;;;;3.85;1.70;;;15.50;99.90;;;;;;5016918;28;20018;-80
2023/08/06 11:16:09;;;;;;;2.45;1.38;;;15.50;99.90;;;;;;5000768;28;20095;-80
2023/08/06 11:18:35;;;;;;;2.80;1.38;;;15.60;99.90;;;;;;5032876;28;20021;-81
2023/08/06 11:21:02;;;;;;;4.30;1.42;;;15.60;99.90;;;;;;5032725;28;20032;-80
2023/08/06 11:23:29;;;;;;;3.88;1.25;;;15.60;99.90;;;;;;5032863;28;20032;-80
2023/08/06 11:25:58;;;;;;;4.90;2.00;;;15.60;99.90;;;;;;5033055;28;20044;-79
2023/08/06 11:28:24;;;;;;;3.72;1.40;;;15.60;99.90;;;;;;5017233;28;20029;-81
2023/08/06 11:30:50;;;;;;;3.03;1.00;;;15.70;99.90;;;;;;5016526;28;20056;-81
2023/08/06 11:33:26;;;;;;;5.72;2.60;;;15.70;99.90;;;;;;5033239;28;20041;-81
2023/08/06 11:35:52;;;;;;;6.70;3.08;;;15.70;99.90;;;;;;5016451;28;20529;-80
2023/08/06 11:38:18;;;;;;;5.07;2.88;;;15.70;99.90;;;;;;5033436;28;20028;-88
2023/08/06 11:40:47;;;;;;;5.50;3.38;;;15.70;99.90;;;;;;5016738;28;20105;-81
2023/08/06 11:43:13;;;;;;;6.53;3.83;;;15.70;99.90;;;;;;5000057;28;20025;-80
2023/08/06 11:45:40;;;;;;;6.00;3.65;;;15.70;99.90;;;;;;5017320;28;20085;-81
2023/08/06 11:48:08;;;;;;;8.20;4.25;;;15.70;99.90;;;;;;5032745;28;20029;-80
2023/08/06 11:50:38;;;;;;;8.25;4.10;;;15.70;99.90;;;;;;5016334;28;20037;-82
2023/08/06 11:53:03;;;;;;;8.45;4.47;;;15.70;99.90;;;;;;5034378;28;20032;-88
2023/08/06 11:55:29;;;;;;;10.48;4.88;;;15.70;99.90;;;;;;5017451;28;20513;-88
2023/08/06 11:57:56;;;;;;;9.23;4.70;;;15.80;99.90;;;;;;5033872;28;20026;-86
2023/08/06 12:00:24;;;;;;;11.75;5.88;;;15.70;99.90;;;;;;5016866;28;20026;-86
2023/08/06 12:02:52;;;;;;;10.48;5.15;;;15.70;99.90;;;;;;5033712;28;20113;-86
2023/08/06 12:05:25;;;;;;;9.32;5.55;;;15.70;99.90;;;;;;5034762;28;20113;-87
2023/08/06 12:07:52;;;;;;;12.90;5.47;;;15.60;99.90;;;;;;5033946;28;20026;-90
2023/08/06 12:10:19;;;;;;;9.38;4.72;;;15.60;99.90;;;;;;5017847;28;20049;-88
2023/08/06 12:12:45;;;;;;;12.95;4.88;;;15.60;99.90;;;;;;5002194;28;20029;-88
2023/08/06 12:15:11;;;;;;;11.88;5.68;;;15.60;99.90;;;;;;5034952;28;20045;-88
2023/08/06 12:17:37;;;;;;;9.65;4.25;;;15.60;99.90;;;;;;5001356;28;20026;-86
2023/08/06 12:20:04;;;;;;;7.30;4.18;;;15.50;99.90;;;;;;5017047;28;20524;-88
2023/08/06 12:22:35;;;;;;;8.93;5.00;;;15.50;99.90;;;;;;5017396;28;20045;-85
2023/08/06 12:25:03;;;;;;;9.63;4.60;;;15.60;99.90;;;;;;5001518;28;20036;-86
2023/08/06 12:27:29;;;;;;;8.77;4.28;;;15.50;99.90;;;;;;5000824;28;20021;-86
2023/08/06 12:29:55;;;;;;;9.38;4.25;;;15.50;99.90;;;;;;5032693;28;20389;-90
2023/08/06 12:32:21;;;;;;;8.73;4.47;;;15.40;99.90;;;;;;5017096;28;20029;-87
2023/08/06 12:34:47;;;;;;;8.35;3.90;;;15.40;99.90;;;;;;5032742;28;20026;-87
2023/08/06 12:37:13;;;;;;;9.95;4.28;;;15.40;99.90;;;;;;4992992;28;20397;-88
2023/08/06 12:39:38;;;;;;;8.10;3.97;;;15.30;99.90;;;;;;5015246;28;20389;-85